sensor_id;sensor_type;location;lat;lon;timestamp;temperature;humidity
47114;DHT22;32867;51.556;6.832;2023-02-01T00:02:51;7.10;99.90
47114;DHT22;32867;51.556;6.832;2023-02-01T00:07:52;7.00;99.90
47114;DHT22;32867;51.556;6.832;2023-02-01T00:12:53;7.00;99.90
47114;DHT22;32867;51.556;6.832;2023-02-01T00:17:54;7.00;99.90
47114;DHT22;32867;51.556;6.832;2023-02-01T00:22:56;7.00;99.90
47114;DHT22;32867;51.556;6.832;2023-02-01T00:27:57;7.00;99.90
47114;DHT22;32867;51.556;6.832;2023-02-01T00:32:59;6.90;99.90
47114;DHT22;32867;51.556;6.832;2023-02-01T00:38:00;6.90;99.90
47114;DHT22;32867;51.556;6.832;2023-02-01T00:43:01;6.90;99.90
47114;DHT22;32867;51.556;6.832;2023-02-01T00:48:02;6.90;99.90
47114;DHT22;32867;51.556;6.832;2023-02-01T00:53:03;6.90;99.90
47114;DHT22;32867;51.556;6.832;2023-02-01T00:58:04;6.90;99.90
47114;DHT22;32867;51.556;6.832;2023-02-01T01:03:06;6.90;99.90
47114;DHT22;32867;51.556;6.832;2023-02-01T01:08:18;7.00;99.90
47114;DHT22;32867;51.556;6.832;2023-02-01T01:13:18;7.10;99.90
47114;DHT22;32867;51.556;6.832;2023-02-01T01:18:19;7.10;99.90
47114;DHT22;32867;51.556;6.832;2023-02-01T01:23:20;7.10;99.90
47114;DHT22;32867;51.556;6.832;2023-02-01T01:28:21;7.10;99.90
47114;DHT22;32867;51.556;6.832;2023-02-01T01:33:21;7.20;99.90
47114;DHT22;32867;51.556;6.832;2023-02-01T01:38:23;7.30;99.90
47114;DHT22;32867;51.556;6.832;2023-02-01T01:43:24;7.20;99.90
47114;DHT22;32867;51.556;6.832;2023-02-01T01:48:30;7.20;99.90
47114;DHT22;32867;51.556;6.832;2023-02-01T01:53:42;7.20;99.90
47114;DHT22;32867;51.556;6.832;2023-02-01T01:58:45;7.30;99.90
47114;DHT22;32867;51.556;6.832;2023-02-01T02:03:46;7.20;99.90
47114;DHT22;32867;51.556;6.832;2023-02-01T02:08:48;7.30;99.90
47114;DHT22;32867;51.556;6.832;2023-02-01T02:13:52;7.20;99.90
47114;DHT22;32867;51.556;6.832;2023-02-01T02:46:04;7.20;99.90
47114;DHT22;32867;51.556;6.832;2023-02-01T02:51:35;7.00;99.90
47114;DHT22;32867;51.556;6.832;2023-02-01T02:56:58;7.00;99.90
47114;DHT22;32867;51.556;6.832;2023-02-01T03:02:21;7.00;99.90
47114;DHT22;32867;51.556;6.832;2023-02-01T03:12:45;6.90;99.90
47114;DHT22;32867;51.556;6.832;2023-02-01T03:18:01;6.90;99.90
47114;DHT22;32867;51.556;6.832;2023-02-01T03:23:04;6.90;99.90
47114;DHT22;32867;51.556;6.832;2023-02-01T03:28:08;6.90;99.90
47114;DHT22;32867;51.556;6.832;2023-02-01T03:33:16;6.90;99.90
47114;DHT22;32867;51.556;6.832;2023-02-01T03:43:48;6.80;99.90
47114;DHT22;32867;51.556;6.832;2023-02-01T03:48:51;6.80;99.90
47114;DHT22;32867;51.556;6.832;2023-02-01T03:53:53;6.80;99.90
47114;DHT22;32867;51.556;6.832;2023-02-01T03:58:55;6.90;99.90
47114;DHT22;32867;51.556;6.832;2023-02-01T04:04:01;6.90;99.90
47114;DHT22;32867;51.556;6.832;2023-02-01T04:09:03;7.00;99.90
47114;DHT22;32867;51.556;6.832;2023-02-01T04:14:04;7.00;99.90
47114;DHT22;32867;51.556;6.832;2023-02-01T04:19:05;7.00;99.90
47114;DHT22;32867;51.556;6.832;2023-02-01T04:24:06;6.80;99.90
47114;DHT22;32867;51.556;6.832;2023-02-01T04:29:08;6.90;99.90
47114;DHT22;32867;51.556;6.832;2023-02-01T04:34:11;6.70;99.90
47114;DHT22;32867;51.556;6.832;2023-02-01T04:39:11;6.70;99.90
47114;DHT22;32867;51.556;6.832;2023-02-01T04:44:15;6.90;99.90
47114;DHT22;32867;51.556;6.832;2023-02-01T04:49:16;6.90;99.90
47114;DHT22;32867;51.556;6.832;2023-02-01T04:54:17;6.90;99.90
47114;DHT22;32867;51.556;6.832;2023-02-01T04:59:18;6.90;99.90
47114;DHT22;32867;51.556;6.832;2023-02-01T05:04:18;6.90;99.90
47114;DHT22;32867;51.556;6.832;2023-02-01T05:09:19;6.80;99.90
47114;DHT22;32867;51.556;6.832;2023-02-01T05:14:22;6.80;99.90
47114;DHT22;32867;51.556;6.832;2023-02-01T05:19:22;6.70;99.90
47114;DHT22;32867;51.556;6.832;2023-02-01T05:24:23;6.70;99.90
47114;DHT22;32867;51.556;6.832;2023-02-01T05:29:24;6.70;99.90
47114;DHT22;32867;51.556;6.832;2023-02-01T05:34:24;6.50;99.90
47114;DHT22;32867;51.556;6.832;2023-02-01T05:39:25;6.50;99.90
47114;DHT22;32867;51.556;6.832;2023-02-01T05:44:26;6.50;99.90
47114;DHT22;32867;51.556;6.832;2023-02-01T05:49:27;6.40;99.90
47114;DHT22;32867;51.556;6.832;2023-02-01T05:54:28;6.40;99.90
47114;DHT22;32867;51.556;6.832;2023-02-01T05:59:28;6.50;99.90
47114;DHT22;32867;51.556;6.832;2023-02-01T06:04:29;6.60;99.90
47114;DHT22;32867;51.556;6.832;2023-02-01T06:09:32;6.70;99.90
47114;DHT22;32867;51.556;6.832;2023-02-01T06:14:35;6.70;99.90
47114;DHT22;32867;51.556;6.832;2023-02-01T06:19:37;6.70;99.90
47114;DHT22;32867;51.556;6.832;2023-02-01T06:24:38;6.70;99.90
47114;DHT22;32867;51.556;6.832;2023-02-01T06:29:40;6.70;99.90
47114;DHT22;32867;51.556;6.832;2023-02-01T06:34:52;6.80;99.90
47114;DHT22;32867;51.556;6.832;2023-02-01T06:40:01;6.80;99.90
47114;DHT22;32867;51.556;6.832;2023-02-01T06:45:02;6.90;99.90
47114;DHT22;32867;51.556;6.832;2023-02-01T06:50:14;6.90;99.90
47114;DHT22;32867;51.556;6.832;2023-02-01T06:55:15;6.90;99.90
47114;DHT22;32867;51.556;6.832;2023-02-01T07:00:16;7.00;99.90
47114;DHT22;32867;51.556;6.832;2023-02-01T07:05:37;6.90;99.90
47114;DHT22;32867;51.556;6.832;2023-02-01T07:10:45;6.90;99.90
47114;DHT22;32867;51.556;6.832;2023-02-01T07:15:51;7.00;99.90
47114;DHT22;32867;51.556;6.832;2023-02-01T07:21:02;7.00;99.90
47114;DHT22;32867;51.556;6.832;2023-02-01T07:26:22;6.90;99.90
47114;DHT22;32867;51.556;6.832;2023-02-01T07:31:29;7.00;99.90
47114;DHT22;32867;51.556;6.832;2023-02-01T07:37:10;7.00;99.90
47114;DHT22;32867;51.556;6.832;2023-02-01T07:42:11;6.90;99.90
47114;DHT22;32867;51.556;6.832;2023-02-01T07:47:12;7.00;99.90
47114;DHT22;32867;51.556;6.832;2023-02-01T07:52:12;6.90;99.90
47114;DHT22;32867;51.556;6.832;2023-02-01T07:57:19;6.90;99.90
47114;DHT22;32867;51.556;6.832;2023-02-01T08:08:45;7.00;99.90
47114;DHT22;32867;51.556;6.832;2023-02-01T08:14:05;7.20;99.90
47114;DHT22;32867;51.556;6.832;2023-02-01T08:19:07;7.10;99.90
47114;DHT22;32867;51.556;6.832;2023-02-01T08:24:09;7.20;99.90
47114;DHT22;32867;51.556;6.832;2023-02-01T08:29:10;7.30;99.90
47114;DHT22;32867;51.556;6.832;2023-02-01T08:34:24;7.30;99.90
47114;DHT22;32867;51.556;6.832;2023-02-01T08:39:31;7.40;99.90
47114;DHT22;32867;51.556;6.832;2023-02-01T08:44:41;7.40;99.90
47114;DHT22;32867;51.556;6.832;2023-02-01T08:49:54;7.40;99.90
47114;DHT22;32867;51.556;6.832;2023-02-01T08:54:55;7.50;99.90
47114;DHT22;32867;51.556;6.832;2023-02-01T08:59:56;7.40;99.90
47114;DHT22;32867;51.556;6.832;2023-02-01T09:04:57;7.40;99.90
47114;DHT22;32867;51.556;6.832;2023-02-01T09:10:00;7.50;99.90
47114;DHT22;32867;51.556;6.832;2023-02-01T09:15:03;7.50;99.90
47114;DHT22;32867;51.556;6.832;2023-02-01T09:20:09;7.60;99.90
47114;DHT22;32867;51.556;6.832;2023-02-01T09:25:10;7.60;99.90
47114;DHT22;32867;51.556;6.832;2023-02-01T09:30:11;7.60;99.90
47114;DHT22;32867;51.556;6.832;2023-02-01T09:35:12;7.50;99.90
47114;DHT22;32867;51.556;6.832;2023-02-01T09:40:16;7.70;99.90
47114;DHT22;32867;51.556;6.832;2023-02-01T09:45:26;7.60;99.90
47114;DHT22;32867;51.556;6.832;2023-02-01T09:50:35;7.70;99.90
47114;DHT22;32867;51.556;6.832;2023-02-01T09:55:49;7.80;99.90
47114;DHT22;32867;51.556;6.832;2023-02-01T10:01:01;7.90;99.90
47114;DHT22;32867;51.556;6.832;2023-02-01T10:11:27;7.90;99.90
47114;DHT22;32867;51.556;6.832;2023-02-01T10:27:40;8.00;99.90
47114;DHT22;32867;51.556;6.832;2023-02-01T10:32:50;7.90;99.90
47114;DHT22;32867;51.556;6.832;2023-02-01T10:37:53;7.90;99.90
47114;DHT22;32867;51.556;6.832;2023-02-01T10:42:57;8.00;99.90
47114;DHT22;32867;51.556;6.832;2023-02-01T10:48:00;8.00;99.90
47114;DHT22;32867;51.556;6.832;2023-02-01T10:53:11;8.20;99.90
47114;DHT22;32867;51.556;6.832;2023-02-01T10:58:31;8.20;99.90
47114;DHT22;32867;51.556;6.832;2023-02-01T11:03:42;8.30;99.90
47114;DHT22;32867;51.556;6.832;2023-02-01T11:08:58;8.50;99.90
47114;DHT22;32867;51.556;6.832;2023-02-01T11:14:10;8.40;99.90
47114;DHT22;32867;51.556;6.832;2023-02-01T11:19:15;8.50;99.90
47114;DHT22;32867;51.556;6.832;2023-02-01T11:24:29;8.30;99.90
47114;DHT22;32867;51.556;6.832;2023-02-01T11:29:37;8.50;99.90
47114;DHT22;32867;51.556;6.832;2023-02-01T11:34:43;8.40;99.90
47114;DHT22;32867;51.556;6.832;2023-02-01T11:39:54;8.50;99.90
47114;DHT22;32867;51.556;6.832;2023-02-01T11:45:26;8.40;99.90
47114;DHT22;32867;51.556;6.832;2023-02-01T11:56:37;8.10;99.90
47114;DHT22;32867;51.556;6.832;2023-02-01T12:13:06;7.80;99.90
47114;DHT22;32867;51.556;6.832;2023-02-01T12:18:34;7.90;99.90
47114;DHT22;32867;51.556;6.832;2023-02-01T12:23:57;8.10;99.90
47114;DHT22;32867;51.556;6.832;2023-02-01T12:30:02;8.30;99.90
47114;DHT22;32867;51.556;6.832;2023-02-01T12:35:13;8.40;99.90
47114;DHT22;32867;51.556;6.832;2023-02-01T12:46:32;8.60;99.90
47114;DHT22;32867;51.556;6.832;2023-02-01T12:52:04;8.50;99.90
47114;DHT22;32867;51.556;6.832;2023-02-01T12:57:37;8.50;99.90
47114;DHT22;32867;51.556;6.832;2023-02-01T13:03:03;8.60;99.90
47114;DHT22;32867;51.556;6.832;2023-02-01T13:14:38;8.60;99.90
47114;DHT22;32867;51.556;6.832;2023-02-01T13:20:15;8.70;99.90
47114;DHT22;32867;51.556;6.832;2023-02-01T13:25:46;8.70;99.90
47114;DHT22;32867;51.556;6.832;2023-02-01T13:36:43;8.70;99.90
47114;DHT22;32867;51.556;6.832;2023-02-01T13:42:15;9.00;99.90
47114;DHT22;32867;51.556;6.832;2023-02-01T13:52:45;9.20;99.90
47114;DHT22;32867;51.556;6.832;2023-02-01T13:58:46;9.10;99.90
47114;DHT22;32867;51.556;6.832;2023-02-01T14:03:22;9.10;99.90
47114;DHT22;32867;51.556;6.832;2023-02-01T14:08:44;9.00;99.90
47114;DHT22;32867;51.556;6.832;2023-02-01T14:13:45;9.00;99.90
47114;DHT22;32867;51.556;6.832;2023-02-01T14:18:49;9.10;99.90
47114;DHT22;32867;51.556;6.832;2023-02-01T14:24:01;9.20;99.90
47114;DHT22;32867;51.556;6.832;2023-02-01T14:34:24;9.10;99.90
47114;DHT22;32867;51.556;6.832;2023-02-01T14:44:45;9.30;99.90
47114;DHT22;32867;51.556;6.832;2023-02-01T14:55:16;9.30;99.90
47114;DHT22;32867;51.556;6.832;2023-02-01T15:00:29;9.30;99.90
47114;DHT22;32867;51.556;6.832;2023-02-01T15:05:33;9.30;99.90
47114;DHT22;32867;51.556;6.832;2023-02-01T15:10:43;9.10;99.90
47114;DHT22;32867;51.556;6.832;2023-02-01T15:21:04;9.30;99.90
47114;DHT22;32867;51.556;6.832;2023-02-01T15:26:07;9.40;99.90
47114;DHT22;32867;51.556;6.832;2023-02-01T15:31:08;9.30;99.90
47114;DHT22;32867;51.556;6.832;2023-02-01T15:36:15;9.40;99.90
47114;DHT22;32867;51.556;6.832;2023-02-01T15:41:30;9.50;99.90
47114;DHT22;32867;51.556;6.832;2023-02-01T15:46:38;9.40;99.90
47114;DHT22;32867;51.556;6.832;2023-02-01T15:51:44;9.30;99.90
47114;DHT22;32867;51.556;6.832;2023-02-01T15:56:51;9.30;99.90
47114;DHT22;32867;51.556;6.832;2023-02-01T16:02:26;9.30;99.90
47114;DHT22;32867;51.556;6.832;2023-02-01T16:08:22;9.30;99.90
47114;DHT22;32867;51.556;6.832;2023-02-01T16:13:13;9.10;99.90
47114;DHT22;32867;51.556;6.832;2023-02-01T16:24:42;9.20;99.90
47114;DHT22;32867;51.556;6.832;2023-02-01T16:37:46;8.70;99.90
47114;DHT22;32867;51.556;6.832;2023-02-01T16:42:53;8.60;99.90
47114;DHT22;32867;51.556;6.832;2023-02-01T17:00:30;8.70;99.90
47114;DHT22;32867;51.556;6.832;2023-02-01T17:06:00;8.80;99.90
47114;DHT22;32867;51.556;6.832;2023-02-01T17:11:27;8.80;99.90
47114;DHT22;32867;51.556;6.832;2023-02-01T17:16:53;8.90;99.90
47114;DHT22;32867;51.556;6.832;2023-02-01T17:22:21;8.90;99.90
47114;DHT22;32867;51.556;6.832;2023-02-01T17:41:59;9.00;99.90
47114;DHT22;32867;51.556;6.832;2023-02-01T17:47:00;8.90;99.90
47114;DHT22;32867;51.556;6.832;2023-02-01T17:52:01;9.10;99.90
47114;DHT22;32867;51.556;6.832;2023-02-01T17:57:12;8.90;99.90
47114;DHT22;32867;51.556;6.832;2023-02-01T18:02:21;8.90;99.90
47114;DHT22;32867;51.556;6.832;2023-02-01T18:07:23;9.00;99.90
47114;DHT22;32867;51.556;6.832;2023-02-01T18:12:32;9.10;99.90
47114;DHT22;32867;51.556;6.832;2023-02-01T18:17:36;9.00;99.90
47114;DHT22;32867;51.556;6.832;2023-02-01T18:22:37;8.90;99.90
47114;DHT22;32867;51.556;6.832;2023-02-01T18:27:38;8.90;99.90
47114;DHT22;32867;51.556;6.832;2023-02-01T18:32:40;9.00;99.90
47114;DHT22;32867;51.556;6.832;2023-02-01T18:37:54;9.00;99.90
47114;DHT22;32867;51.556;6.832;2023-02-01T18:43:29;8.90;99.90
47114;DHT22;32867;51.556;6.832;2023-02-01T18:48:51;8.70;99.90
47114;DHT22;32867;51.556;6.832;2023-02-01T18:54:00;8.70;99.90
47114;DHT22;32867;51.556;6.832;2023-02-01T18:59:01;8.70;99.90
47114;DHT22;32867;51.556;6.832;2023-02-01T19:04:03;8.90;99.90
47114;DHT22;32867;51.556;6.832;2023-02-01T19:09:04;9.00;99.90
47114;DHT22;32867;51.556;6.832;2023-02-01T19:14:05;8.90;99.90
47114;DHT22;32867;51.556;6.832;2023-02-01T19:19:06;8.80;99.90
47114;DHT22;32867;51.556;6.832;2023-02-01T19:24:07;9.00;99.90
47114;DHT22;32867;51.556;6.832;2023-02-01T19:29:08;9.00;99.90
47114;DHT22;32867;51.556;6.832;2023-02-01T19:34:08;9.00;99.90
47114;DHT22;32867;51.556;6.832;2023-02-01T19:39:10;8.80;99.90
47114;DHT22;32867;51.556;6.832;2023-02-01T19:44:11;8.60;99.90
47114;DHT22;32867;51.556;6.832;2023-02-01T19:49:11;8.30;99.90
47114;DHT22;32867;51.556;6.832;2023-02-01T19:54:13;7.80;99.90
47114;DHT22;32867;51.556;6.832;2023-02-01T19:59:21;7.50;99.90
47114;DHT22;32867;51.556;6.832;2023-02-01T20:04:24;7.30;99.90
47114;DHT22;32867;51.556;6.832;2023-02-01T20:09:26;7.30;99.90
47114;DHT22;32867;51.556;6.832;2023-02-01T20:14:29;7.20;99.90
47114;DHT22;32867;51.556;6.832;2023-02-01T20:19:30;7.20;99.90
47114;DHT22;32867;51.556;6.832;2023-02-01T20:24:34;7.10;99.90
47114;DHT22;32867;51.556;6.832;2023-02-01T20:29:36;7.10;99.90
47114;DHT22;32867;51.556;6.832;2023-02-01T20:34:36;7.20;99.90
47114;DHT22;32867;51.556;6.832;2023-02-01T20:39:37;7.30;99.90
47114;DHT22;32867;51.556;6.832;2023-02-01T20:44:38;7.40;99.90
47114;DHT22;32867;51.556;6.832;2023-02-01T20:49:39;7.30;99.90
47114;DHT22;32867;51.556;6.832;2023-02-01T20:54:40;7.30;99.90
47114;DHT22;32867;51.556;6.832;2023-02-01T20:59:41;7.30;99.90
47114;DHT22;32867;51.556;6.832;2023-02-01T21:04:44;7.20;99.90
47114;DHT22;32867;51.556;6.832;2023-02-01T21:09:46;7.20;99.90
47114;DHT22;32867;51.556;6.832;2023-02-01T21:14:49;7.30;99.90
47114;DHT22;32867;51.556;6.832;2023-02-01T21:19:50;7.30;99.90
47114;DHT22;32867;51.556;6.832;2023-02-01T21:24:50;7.30;99.90
47114;DHT22;32867;51.556;6.832;2023-02-01T21:29:51;7.40;99.90
47114;DHT22;32867;51.556;6.832;2023-02-01T21:34:52;7.30;99.90
47114;DHT22;32867;51.556;6.832;2023-02-01T21:39:52;7.30;99.90
47114;DHT22;32867;51.556;6.832;2023-02-01T21:44:53;7.20;99.90
47114;DHT22;32867;51.556;6.832;2023-02-01T21:49:54;7.20;99.90
47114;DHT22;32867;51.556;6.832;2023-02-01T21:54:55;7.20;99.90
47114;DHT22;32867;51.556;6.832;2023-02-01T21:59:58;7.20;99.90
47114;DHT22;32867;51.556;6.832;2023-02-01T22:05:00;7.10;99.90
47114;DHT22;32867;51.556;6.832;2023-02-01T22:10:02;7.20;99.90
47114;DHT22;32867;51.556;6.832;2023-02-01T22:15:03;7.10;99.90
47114;DHT22;32867;51.556;6.832;2023-02-01T22:20:05;7.20;99.90
47114;DHT22;32867;51.556;6.832;2023-02-01T22:25:06;7.20;99.90
47114;DHT22;32867;51.556;6.832;2023-02-01T22:30:09;7.20;99.90
47114;DHT22;32867;51.556;6.832;2023-02-01T22:35:10;7.20;99.90
47114;DHT22;32867;51.556;6.832;2023-02-01T22:40:12;7.30;99.90
47114;DHT22;32867;51.556;6.832;2023-02-01T22:45:12;7.30;99.90
47114;DHT22;32867;51.556;6.832;2023-02-01T22:50:15;7.20;99.90
47114;DHT22;32867;51.556;6.832;2023-02-01T22:55:16;7.30;99.90
47114;DHT22;32867;51.556;6.832;2023-02-01T23:00:16;7.30;99.90
47114;DHT22;32867;51.556;6.832;2023-02-01T23:05:18;7.40;99.90
47114;DHT22;32867;51.556;6.832;2023-02-01T23:10:19;7.30;99.90
47114;DHT22;32867;51.556;6.832;2023-02-01T23:15:22;7.30;99.90
47114;DHT22;32867;51.556;6.832;2023-02-01T23:20:22;7.30;99.90
47114;DHT22;32867;51.556;6.832;2023-02-01T23:25:23;7.40;99.90
47114;DHT22;32867;51.556;6.832;2023-02-01T23:30:24;7.50;99.90
47114;DHT22;32867;51.556;6.832;2023-02-01T23:35:24;7.60;99.90
47114;DHT22;32867;51.556;6.832;2023-02-01T23:40:25;7.60;99.90
47114;DHT22;32867;51.556;6.832;2023-02-01T23:45:26;7.70;99.90
47114;DHT22;32867;51.556;6.832;2023-02-01T23:50:27;7.70;99.90
47114;DHT22;32867;51.556;6.832;2023-02-01T23:55:29;7.70;99.90
